createdAt,value
2018-11-06T00:00:01.590Z,1004.83
2018-11-06T00:01:11.304Z,1004.82
2018-11-06T00:02:21.246Z,1004.82
2018-11-06T00:03:30.415Z,1004.86
2018-11-06T00:04:40.098Z,1004.84
2018-11-06T00:05:49.541Z,1004.84
2018-11-06T00:06:59.485Z,1004.83
2018-11-06T00:08:09.166Z,1004.8
2018-11-06T00:09:18.670Z,1004.82
2018-11-06T00:10:29.149Z,1004.89
2018-11-06T00:11:38.837Z,1004.84
2018-11-06T00:12:48.548Z,1004.81
2018-11-06T00:13:58.259Z,1004.83
2018-11-06T00:15:07.943Z,1004.84
2018-11-06T00:16:17.638Z,1004.85
2018-11-06T00:17:27.598Z,1004.91
2018-11-06T00:18:37.302Z,1004.88
2018-11-06T00:19:46.995Z,1004.85
2018-11-06T00:20:56.427Z,1004.86
2018-11-06T00:22:06.382Z,1004.87
2018-11-06T00:23:15.811Z,1004.86
2018-11-06T00:24:25.779Z,1004.89
2018-11-06T00:25:35.736Z,1004.9
2018-11-06T00:26:45.417Z,1004.86
2018-11-06T00:27:55.115Z,1004.81
2018-11-06T00:29:05.090Z,1004.82
2018-11-06T00:30:14.787Z,1004.82
2018-11-06T00:31:24.491Z,1004.83
2018-11-06T00:32:33.672Z,1004.83
2018-11-06T00:33:43.102Z,1004.82
2018-11-06T00:34:52.529Z,1004.85
2018-11-06T00:36:01.949Z,1004.82
2018-11-06T00:37:11.906Z,1004.82
2018-11-06T00:38:21.852Z,1004.88
2018-11-06T00:39:31.281Z,1004.88
2018-11-06T00:40:41.225Z,1004.83
2018-11-06T00:41:50.666Z,1004.87
2018-11-06T00:43:00.113Z,1004.87
2018-11-06T00:44:09.811Z,1004.88
2018-11-06T00:45:19.754Z,1004.9
2018-11-06T00:46:29.447Z,1004.85
2018-11-06T00:47:39.402Z,1004.87
2018-11-06T00:48:49.101Z,1004.85
2018-11-06T00:49:59.045Z,1004.84
2018-11-06T00:51:08.728Z,1004.83
2018-11-06T00:52:18.153Z,1004.8
2018-11-06T00:53:27.837Z,1004.9
2018-11-06T00:54:37.264Z,1004.84
2018-11-06T00:55:46.688Z,1004.85
2018-11-06T00:56:56.402Z,1004.86
2018-11-06T00:58:05.839Z,1004.84
2018-11-06T00:59:15.816Z,1004.83
2018-11-06T01:00:25.648Z,1004.85
2018-11-06T01:01:35.262Z,1004.85
2018-11-06T01:02:44.691Z,1004.83
2018-11-06T01:03:54.659Z,1004.86
2018-11-06T01:05:04.614Z,1004.86
2018-11-06T01:06:14.041Z,1004.86
2018-11-06T01:07:23.995Z,1004.82
2018-11-06T01:08:32.900Z,1004.83
2018-11-06T01:09:42.339Z,1004.8
2018-11-06T01:10:51.518Z,1004.8
2018-11-06T01:12:01.456Z,1004.83
2018-11-06T01:13:11.167Z,1004.83
2018-11-06T01:14:20.866Z,1004.82
2018-11-06T01:15:30.048Z,1004.82
2018-11-06T01:16:39.735Z,1004.84
2018-11-06T01:17:49.430Z,1004.85
2018-11-06T01:18:59.371Z,1004.85
2018-11-06T01:20:09.065Z,1004.87
2018-11-06T01:21:19.010Z,1004.85
2018-11-06T01:22:28.958Z,1004.83
2018-11-06T01:23:37.877Z,1004.89
2018-11-06T01:24:47.824Z,1004.91
2018-11-06T01:25:57.512Z,1004.9
2018-11-06T01:27:06.940Z,1004.93
2018-11-06T01:28:16.870Z,1004.92
2018-11-06T01:29:26.296Z,1004.9
2018-11-06T01:30:35.996Z,1004.9
2018-11-06T01:31:45.688Z,1004.92
2018-11-06T01:32:55.127Z,1004.89
2018-11-06T01:34:04.816Z,1004.92
2018-11-06T01:35:14.762Z,1004.95
2018-11-06T01:36:23.927Z,1004.89
2018-11-06T01:37:33.357Z,1004.9
2018-11-06T01:38:43.041Z,1004.87
2018-11-06T01:39:52.744Z,1004.88
2018-11-06T01:41:02.695Z,1004.87
2018-11-06T01:42:12.374Z,1004.9
2018-11-06T01:43:21.813Z,1004.9
2018-11-06T01:44:31.512Z,1004.9
2018-11-06T01:45:40.943Z,1004.9
2018-11-06T01:46:50.416Z,1004.9
2018-11-06T01:48:00.127Z,1004.9
2018-11-06T01:49:09.810Z,1004.94
2018-11-06T01:50:19.745Z,1004.87
2018-11-06T01:51:29.681Z,1004.84
2018-11-06T01:52:39.372Z,1004.84
2018-11-06T01:53:49.321Z,1004.87
2018-11-06T01:54:59.018Z,1004.79
2018-11-06T01:56:08.960Z,1004.79
2018-11-06T01:57:18.902Z,1004.77
2018-11-06T01:58:28.584Z,1004.75
2018-11-06T01:59:38.276Z,1004.77
2018-11-06T02:00:47.970Z,1004.75
2018-11-06T02:01:57.408Z,1004.74
2018-11-06T02:03:07.376Z,1004.73
2018-11-06T02:04:17.315Z,1004.74
2018-11-06T02:05:27.262Z,1004.74
2018-11-06T02:06:36.942Z,1004.74
2018-11-06T02:07:46.889Z,1004.79
2018-11-06T02:08:56.321Z,1004.75
2018-11-06T02:10:06.002Z,1004.7
2018-11-06T02:11:15.418Z,1004.67
2018-11-06T02:12:25.108Z,1004.68
2018-11-06T02:13:35.058Z,1004.72
2018-11-06T02:14:44.997Z,1004.69
2018-11-06T02:15:54.937Z,1004.69
2018-11-06T02:17:04.381Z,1004.66
2018-11-06T02:18:14.333Z,1004.69
2018-11-06T02:19:24.278Z,1004.7
2018-11-06T02:20:34.228Z,1004.72
2018-11-06T02:21:43.915Z,1004.75
2018-11-06T02:22:53.588Z,1004.8
2018-11-06T02:24:03.296Z,1004.84
2018-11-06T02:25:12.715Z,1004.8
2018-11-06T02:26:22.412Z,1004.84
2018-11-06T02:27:32.357Z,1004.81
2018-11-06T02:28:42.044Z,1004.86
2018-11-06T02:29:51.730Z,1004.84
2018-11-06T02:31:01.419Z,1004.82
2018-11-06T02:32:11.403Z,1004.8
2018-11-06T02:33:21.482Z,1004.74
2018-11-06T02:34:31.428Z,1004.76
2018-11-06T02:35:41.372Z,1004.79
2018-11-06T02:36:51.330Z,1004.78
2018-11-06T02:38:01.293Z,1004.82
2018-11-06T02:39:10.993Z,1004.79
2018-11-06T02:40:20.172Z,1004.77
2018-11-06T02:41:29.859Z,1004.81
2018-11-06T02:42:39.279Z,1004.81
2018-11-06T02:43:48.717Z,1004.75
2018-11-06T02:44:58.669Z,1004.8
2018-11-06T02:46:08.635Z,1004.86
2018-11-06T02:47:18.334Z,1004.84
2018-11-06T02:48:27.769Z,1004.83
2018-11-06T02:49:37.450Z,1004.84
2018-11-06T02:50:47.391Z,1004.86
2018-11-06T02:51:56.809Z,1004.86
2018-11-06T02:53:06.507Z,1004.86
2018-11-06T02:54:16.700Z,1004.84
2018-11-06T02:55:26.381Z,1004.87
2018-11-06T02:56:35.558Z,1004.89
2018-11-06T02:57:45.247Z,1004.88
2018-11-06T02:58:55.194Z,1004.88
2018-11-06T03:00:05.158Z,1004.86
2018-11-06T03:01:14.592Z,1004.83
2018-11-06T03:02:24.535Z,1004.86
2018-11-06T03:03:34.216Z,1004.88
2018-11-06T03:04:43.654Z,1004.86
2018-11-06T03:05:52.860Z,1004.87
2018-11-06T03:07:02.559Z,1004.92
2018-11-06T03:08:11.978Z,1004.91
2018-11-06T03:09:21.658Z,1004.9
2018-11-06T03:10:31.475Z,1004.96
2018-11-06T03:11:41.465Z,1004.91
2018-11-06T03:12:50.890Z,1004.95
2018-11-06T03:14:00.835Z,1004.95
2018-11-06T03:15:10.270Z,1004.99
2018-11-06T03:16:19.969Z,1005
2018-11-06T03:17:29.405Z,1005.01
2018-11-06T03:18:38.582Z,1005
2018-11-06T03:19:48.018Z,1005
2018-11-06T03:20:57.719Z,1004.98
2018-11-06T03:22:07.700Z,1004.96
2018-11-06T03:23:17.646Z,1005
2018-11-06T03:24:27.089Z,1004.97
2018-11-06T03:25:37.034Z,1005.02
2018-11-06T03:26:46.984Z,1005.01
2018-11-06T03:27:56.666Z,1005.1
2018-11-06T03:29:05.841Z,1005.04
2018-11-06T03:30:15.799Z,1005.02
2018-11-06T03:31:25.504Z,1005.07
2018-11-06T03:32:34.946Z,1005.03
2018-11-06T03:33:44.645Z,1005.06
2018-11-06T03:34:54.600Z,1005.09
2018-11-06T03:36:04.557Z,1005.09
2018-11-06T03:37:14.500Z,1005.03
2018-11-06T03:38:24.197Z,1005.05
2018-11-06T03:39:34.147Z,1005.07
2018-11-06T03:40:43.840Z,1005.1
2018-11-06T03:41:53.533Z,1005.07
2018-11-06T03:43:03.490Z,1005.07
2018-11-06T03:44:13.451Z,1005.08
2018-11-06T03:45:22.883Z,1005.08
2018-11-06T03:46:32.815Z,1005.1
2018-11-06T03:47:42.745Z,1005.09
2018-11-06T03:48:52.421Z,1005.09
2018-11-06T03:50:02.130Z,1005.1
2018-11-06T03:51:11.820Z,1005.08
2018-11-06T03:52:21.763Z,1005.12
2018-11-06T03:53:31.189Z,1005.15
2018-11-06T03:54:40.613Z,1005.15
2018-11-06T03:55:49.812Z,1005.12
2018-11-06T03:56:59.769Z,1005.1
2018-11-06T03:58:09.706Z,1005.1
2018-11-06T03:59:19.405Z,1005.05
2018-11-06T04:00:29.094Z,1005.1
2018-11-06T04:01:39.040Z,1005.07
2018-11-06T04:02:48.721Z,1005.07
2018-11-06T04:03:58.663Z,1005.07
2018-11-06T04:05:08.353Z,1005.13
2018-11-06T04:06:18.039Z,1005.1
2018-11-06T04:07:27.736Z,1005.14
2018-11-06T04:08:37.176Z,1005.12
2018-11-06T04:09:46.613Z,1005.15
2018-11-06T04:10:56.302Z,1005.13
2018-11-06T04:12:06.251Z,1005.15
2018-11-06T04:13:15.955Z,1005.18
2018-11-06T04:14:25.376Z,1005.19
2018-11-06T04:15:34.813Z,1005.2
2018-11-06T04:16:44.254Z,1005.21
2018-11-06T04:17:53.683Z,1005.21
2018-11-06T04:19:03.371Z,1005.13
2018-11-06T04:20:13.069Z,1005.17
2018-11-06T04:21:23.029Z,1005.18
2018-11-06T04:22:32.451Z,1005.18
2018-11-06T04:23:42.163Z,1005.15
2018-11-06T04:24:51.856Z,1005.2
2018-11-06T04:26:01.541Z,1005.17
2018-11-06T04:27:10.976Z,1005.2
2018-11-06T04:28:20.436Z,1005.14
2018-11-06T04:29:30.405Z,1005.17
2018-11-06T04:30:40.096Z,1005.17
2018-11-06T04:31:50.057Z,1005.17
2018-11-06T04:33:00.040Z,1005.2
2018-11-06T04:34:09.789Z,1005.15
2018-11-06T04:35:19.230Z,1005.17
2018-11-06T04:36:28.660Z,1005.18
2018-11-06T04:37:38.353Z,1005.21
2018-11-06T04:38:48.046Z,1005.22
2018-11-06T04:39:57.737Z,1005.24
2018-11-06T04:41:07.685Z,1005.19
2018-11-06T04:42:17.132Z,1005.2
2018-11-06T04:43:26.829Z,1005.25
2018-11-06T04:44:36.519Z,1005.21
2018-11-06T04:45:46.213Z,1005.17
2018-11-06T04:46:55.898Z,1005.18
2018-11-06T04:48:05.848Z,1005.18
2018-11-06T04:49:15.545Z,1005.17
2018-11-06T04:50:25.236Z,1005.21
2018-11-06T04:51:34.930Z,1005.18
2018-11-06T04:52:44.637Z,1005.18
2018-11-06T04:53:54.078Z,1005.2
2018-11-06T04:55:03.774Z,1005.2
2018-11-06T04:56:13.466Z,1005.21
2018-11-06T04:57:23.155Z,1005.23
2018-11-06T04:58:33.112Z,1005.22
2018-11-06T04:59:42.545Z,1005.22
2018-11-06T05:00:52.227Z,1005.23
2018-11-06T05:02:02.280Z,1005.21
2018-11-06T05:03:12.137Z,1005.23
2018-11-06T05:04:21.846Z,1005.21
2018-11-06T05:05:31.302Z,1005.2
2018-11-06T05:06:41.052Z,1005.21
2018-11-06T05:07:51.294Z,1005.2
2018-11-06T05:09:00.977Z,1005.19
2018-11-06T05:10:10.664Z,1005.18
2018-11-06T05:11:20.605Z,1005.21
2018-11-06T05:12:30.564Z,1005.26
2018-11-06T05:13:40.513Z,1005.23
2018-11-06T05:14:50.260Z,1005.23
2018-11-06T05:15:59.950Z,1005.29
2018-11-06T05:17:09.641Z,1005.25
2018-11-06T05:18:19.585Z,1005.27
2018-11-06T05:19:29.578Z,1005.31
2018-11-06T05:20:39.267Z,1005.27
2018-11-06T05:21:49.213Z,1005.27
2018-11-06T05:22:59.150Z,1005.32
2018-11-06T05:24:08.577Z,1005.28
2018-11-06T05:25:18.575Z,1005.29
2018-11-06T05:26:28.185Z,1005.29
2018-11-06T05:27:38.276Z,1005.25
2018-11-06T05:28:47.568Z,1005.3
2018-11-06T05:29:57.540Z,1005.33
2018-11-06T05:31:07.228Z,1005.38
2018-11-06T05:32:17.181Z,1005.41
2018-11-06T05:33:26.859Z,1005.42
2018-11-06T05:34:36.604Z,1005.41
2018-11-06T05:35:46.922Z,1005.44
2018-11-06T05:36:56.871Z,1005.46
2018-11-06T05:38:06.832Z,1005.51
2018-11-06T05:39:16.524Z,1005.52
2018-11-06T05:40:26.406Z,1005.51
2018-11-06T05:41:36.355Z,1005.47
2018-11-06T05:42:46.296Z,1005.49
2018-11-06T05:43:55.753Z,1005.49
2018-11-06T05:45:05.858Z,1005.49
2018-11-06T05:46:15.962Z,1005.5
2018-11-06T05:47:25.915Z,1005.49
2018-11-06T05:48:35.091Z,1005.5
2018-11-06T05:49:44.553Z,1005.5
2018-11-06T05:50:54.500Z,1005.49
2018-11-06T05:52:04.183Z,1005.52
2018-11-06T05:53:13.943Z,1005.54
2018-11-06T05:54:24.623Z,1005.56
2018-11-06T05:55:34.105Z,1005.56
2018-11-06T05:56:44.053Z,1005.56
2018-11-06T05:57:53.764Z,1005.58
2018-11-06T05:59:03.504Z,1005.55
2018-11-06T06:00:13.197Z,1005.57
2018-11-06T06:01:23.260Z,1005.59
2018-11-06T06:02:32.699Z,1005.59
2018-11-06T06:03:42.402Z,1005.56
2018-11-06T06:04:52.353Z,1005.58
2018-11-06T06:06:02.049Z,1005.57
2018-11-06T06:07:11.477Z,1005.6
2018-11-06T06:08:21.433Z,1005.6
2018-11-06T06:09:30.861Z,1005.58
2018-11-06T06:10:40.567Z,1005.6
2018-11-06T06:11:50.265Z,1005.63
2018-11-06T06:13:00.207Z,1005.58
2018-11-06T06:14:10.158Z,1005.61
2018-11-06T06:15:19.334Z,1005.62
2018-11-06T06:16:28.800Z,1005.64
2018-11-06T06:17:38.982Z,1005.63
2018-11-06T06:18:48.670Z,1005.6
2018-11-06T06:19:58.118Z,1005.58
2018-11-06T06:21:08.065Z,1005.58
2018-11-06T06:22:18.047Z,1005.66
2018-11-06T06:23:27.968Z,1005.63
2018-11-06T06:24:37.670Z,1005.67
2018-11-06T06:25:47.366Z,1005.68
2018-11-06T06:26:57.053Z,1005.7
2018-11-06T06:28:06.496Z,1005.75
2018-11-06T06:29:16.254Z,1005.75
2018-11-06T06:30:26.200Z,1005.77
2018-11-06T06:31:36.178Z,1005.78
2018-11-06T06:32:46.160Z,1005.79
2018-11-06T06:33:55.871Z,1005.81
2018-11-06T06:35:05.703Z,1005.83
2018-11-06T06:36:16.483Z,1005.83
2018-11-06T06:37:26.166Z,1005.86
2018-11-06T06:38:36.171Z,1005.86
2018-11-06T06:39:46.685Z,1005.91
2018-11-06T06:40:56.961Z,1005.89
2018-11-06T06:42:07.179Z,1005.9
2018-11-06T06:43:16.633Z,1005.92
2018-11-06T06:44:26.608Z,1005.94
2018-11-06T06:45:36.305Z,1005.93
2018-11-06T06:46:45.744Z,1005.95
2018-11-06T06:47:55.186Z,1005.97
2018-11-06T06:49:05.142Z,1005.98
2018-11-06T06:50:14.832Z,1005.95
2018-11-06T06:51:24.263Z,1005.95
2018-11-06T06:52:34.220Z,1005.97
2018-11-06T06:53:43.933Z,1005.99
2018-11-06T06:54:53.945Z,1005.95
2018-11-06T06:56:03.735Z,1005.99
2018-11-06T06:57:13.431Z,1005.99
2018-11-06T06:58:23.418Z,1006.02
2018-11-06T06:59:33.132Z,1005.99
2018-11-06T07:00:42.832Z,1006.07
2018-11-06T07:01:52.797Z,1006.09
2018-11-06T07:03:02.279Z,1006.1
2018-11-06T07:04:11.753Z,1006.07
2018-11-06T07:05:21.192Z,1006.1
2018-11-06T07:06:31.148Z,1006.11
2018-11-06T07:07:40.601Z,1006.1
2018-11-06T07:08:50.061Z,1006.11
2018-11-06T07:10:00.019Z,1006.12
2018-11-06T07:11:09.984Z,1006.1
2018-11-06T07:12:19.920Z,1006.16
2018-11-06T07:13:29.345Z,1006.16
2018-11-06T07:14:39.140Z,1006.12
2018-11-06T07:15:48.832Z,1006.13
2018-11-06T07:16:58.784Z,1006.11
2018-11-06T07:18:07.970Z,1006.11
2018-11-06T07:19:17.664Z,1006.11
2018-11-06T07:20:27.100Z,1006.14
2018-11-06T07:21:36.799Z,1006.16
2018-11-06T07:22:46.753Z,1006.16
2018-11-06T07:23:55.933Z,1006.2
2018-11-06T07:25:05.113Z,1006.15
2018-11-06T07:26:14.816Z,1006.17
2018-11-06T07:27:24.492Z,1006.17
2018-11-06T07:28:34.456Z,1006.15
2018-11-06T07:29:44.379Z,1006.19
2018-11-06T07:30:53.809Z,1006.17
2018-11-06T07:32:03.522Z,1006.22
2018-11-06T07:33:13.205Z,1006.2
2018-11-06T07:34:23.166Z,1006.24
2018-11-06T07:35:33.619Z,1006.25
2018-11-06T07:36:43.868Z,1006.26
2018-11-06T07:37:53.332Z,1006.27
2018-11-06T07:39:03.027Z,1006.34
2018-11-06T07:40:13.008Z,1006.3
2018-11-06T07:41:23.083Z,1006.35
2018-11-06T07:42:32.550Z,1006.34
2018-11-06T07:43:41.976Z,1006.34
2018-11-06T07:44:51.152Z,1006.3
2018-11-06T07:46:01.094Z,1006.32
2018-11-06T07:47:11.040Z,1006.29
2018-11-06T07:48:20.992Z,1006.32
2018-11-06T07:49:30.673Z,1006.31
2018-11-06T07:50:40.374Z,1006.36
2018-11-06T07:51:50.060Z,1006.35
2018-11-06T07:52:59.494Z,1006.35
2018-11-06T07:54:09.203Z,1006.35
2018-11-06T07:55:19.161Z,1006.38
2018-11-06T07:56:28.932Z,1006.4
2018-11-06T07:57:38.365Z,1006.42
2018-11-06T07:58:48.062Z,1006.45
2018-11-06T07:59:57.529Z,1006.45
2018-11-06T08:01:06.961Z,1006.46
2018-11-06T08:02:16.936Z,1006.47
2018-11-06T08:03:26.642Z,1006.5
2018-11-06T08:04:36.339Z,1006.47
2018-11-06T08:05:46.265Z,1006.47
2018-11-06T08:06:56.229Z,1006.5
2018-11-06T08:08:05.938Z,1006.49
2018-11-06T08:09:15.403Z,1006.48
2018-11-06T08:10:24.917Z,1006.47
2018-11-06T08:11:34.886Z,1006.5
2018-11-06T08:12:44.852Z,1006.48
2018-11-06T08:13:54.567Z,1006.48
2018-11-06T08:15:04.627Z,1006.45
2018-11-06T08:16:15.033Z,1006.48
2018-11-06T08:17:24.731Z,1006.45
2018-11-06T08:18:34.441Z,1006.44
2018-11-06T08:19:44.404Z,1006.38
2018-11-06T08:20:54.120Z,1006.38
2018-11-06T08:22:03.838Z,1006.42
2018-11-06T08:23:13.834Z,1006.42
2018-11-06T08:24:23.314Z,1006.36
2018-11-06T08:25:32.766Z,1006.43
2018-11-06T08:26:42.206Z,1006.38
2018-11-06T08:27:52.020Z,1006.39
2018-11-06T08:29:02.349Z,1006.44
2018-11-06T08:30:12.126Z,1006.31
2018-11-06T08:31:22.336Z,1006.31
2018-11-06T08:32:34.146Z,1006.36
2018-11-06T08:33:47.217Z,1006.34
2018-11-06T08:34:56.921Z,1006.32
2018-11-06T08:36:06.958Z,1006.35
2018-11-06T08:37:16.938Z,1006.35
2018-11-06T08:38:26.387Z,1006.3
2018-11-06T08:39:36.118Z,1006.31
2018-11-06T08:40:45.814Z,1006.3
2018-11-06T08:41:55.246Z,1006.27
2018-11-06T08:43:04.964Z,1006.33
2018-11-06T08:44:14.684Z,1006.33
2018-11-06T08:45:24.627Z,1006.38
2018-11-06T08:46:34.342Z,1006.39
2018-11-06T08:47:44.336Z,1006.41
2018-11-06T08:48:53.788Z,1006.39
2018-11-06T08:50:03.504Z,1006.43
2018-11-06T08:51:12.679Z,1006.43
2018-11-06T08:52:22.386Z,1006.4
2018-11-06T08:53:31.886Z,1006.44
2018-11-06T08:54:41.394Z,1006.44
2018-11-06T08:55:51.812Z,1006.45
2018-11-06T08:57:01.748Z,1006.41
2018-11-06T08:58:11.212Z,1006.47
2018-11-06T08:59:21.164Z,1006.45
2018-11-06T09:00:30.879Z,1006.38
2018-11-06T09:01:40.604Z,1006.48
2018-11-06T09:02:50.096Z,1006.41
2018-11-06T09:04:00.059Z,1006.41
2018-11-06T09:05:09.797Z,1006.41
2018-11-06T09:06:19.783Z,1006.48
2018-11-06T09:07:29.490Z,1006.49
2018-11-06T09:08:39.248Z,1006.45
2018-11-06T09:09:48.967Z,1006.42
2018-11-06T09:10:58.679Z,1006.45
2018-11-06T09:12:08.111Z,1006.44
2018-11-06T09:13:18.104Z,1006.45
2018-11-06T09:14:27.872Z,1006.44
2018-11-06T09:15:37.863Z,1006.47
2018-11-06T09:16:47.875Z,1006.46
2018-11-06T09:17:57.690Z,1006.45
2018-11-06T09:19:07.658Z,1006.47
2018-11-06T09:20:17.674Z,1006.42
2018-11-06T09:21:27.385Z,1006.41
2018-11-06T09:22:37.339Z,1006.44
2018-11-06T09:23:46.737Z,1006.45
2018-11-06T09:24:56.695Z,1006.38
2018-11-06T09:26:06.164Z,1006.38
2018-11-06T09:27:15.889Z,1006.39
2018-11-06T09:28:25.584Z,1006.42
2018-11-06T09:29:35.524Z,1006.41
2018-11-06T09:30:45.292Z,1006.44
2018-11-06T09:31:55.258Z,1006.45
2018-11-06T09:33:04.969Z,1006.38
2018-11-06T09:34:14.975Z,1006.38
2018-11-06T09:35:24.940Z,1006.42
2018-11-06T09:36:34.693Z,1006.43
2018-11-06T09:37:44.402Z,1006.39
2018-11-06T09:38:54.400Z,1006.42
2018-11-06T09:40:04.102Z,1006.4
2018-11-06T09:41:13.811Z,1006.4
2018-11-06T09:42:24.178Z,1006.35
2018-11-06T09:43:33.879Z,1006.32
2018-11-06T09:44:43.601Z,1006.37
2018-11-06T09:45:53.657Z,1006.34
2018-11-06T09:47:03.382Z,1006.33
2018-11-06T09:48:12.839Z,1006.31
2018-11-06T09:49:22.568Z,1006.32
2018-11-06T09:50:32.596Z,1006.35
2018-11-06T09:51:42.312Z,1006.36
2018-11-06T09:52:52.122Z,1006.36
2018-11-06T09:54:02.152Z,1006.28
2018-11-06T09:55:11.354Z,1006.33
2018-11-06T09:56:21.043Z,1006.34
2018-11-06T09:57:30.757Z,1006.33
2018-11-06T09:58:40.495Z,1006.35
2018-11-06T09:59:50.193Z,1006.34
2018-11-06T10:00:59.978Z,1006.35
2018-11-06T10:02:09.675Z,1006.36
2018-11-06T10:03:19.648Z,1006.39
2018-11-06T10:04:29.105Z,1006.37
2018-11-06T10:05:38.585Z,1006.37
2018-11-06T10:06:48.324Z,1006.37
2018-11-06T10:07:59.431Z,1006.37
2018-11-06T10:09:08.952Z,1006.39
2018-11-06T10:10:18.893Z,1006.43
2018-11-06T10:11:28.653Z,1006.36
2018-11-06T10:12:38.522Z,1006.38
2018-11-06T10:13:48.231Z,1006.42
2018-11-06T10:14:58.195Z,1006.37
2018-11-06T10:16:07.894Z,1006.41
2018-11-06T10:17:17.586Z,1006.39
2018-11-06T10:18:27.025Z,1006.38
2018-11-06T10:19:36.708Z,1006.36
2018-11-06T10:20:46.426Z,1006.34
2018-11-06T10:21:55.886Z,1006.4
2018-11-06T10:23:05.335Z,1006.36
2018-11-06T10:24:15.038Z,1006.33
2018-11-06T10:25:24.734Z,1006.33
2018-11-06T10:26:34.700Z,1006.26
2018-11-06T10:27:44.662Z,1006.29
2018-11-06T10:28:54.403Z,1006.3
2018-11-06T10:30:03.848Z,1006.31
2018-11-06T10:31:13.293Z,1006.33
2018-11-06T10:32:23.031Z,1006.29
2018-11-06T10:33:32.740Z,1006.29
2018-11-06T10:34:42.703Z,1006.25
2018-11-06T10:35:52.147Z,1006.27
2018-11-06T10:37:02.119Z,1006.26
2018-11-06T10:38:11.883Z,1006.26
2018-11-06T10:39:22.303Z,1006.23
2018-11-06T10:40:32.305Z,1006.24
2018-11-06T10:41:42.014Z,1006.23
2018-11-06T10:42:51.715Z,1006.21
2018-11-06T10:44:01.407Z,1006.19
2018-11-06T10:45:11.129Z,1006.25
2018-11-06T10:46:20.834Z,1006.22
2018-11-06T10:47:30.807Z,1006.21
2018-11-06T10:48:40.757Z,1006.2
2018-11-06T10:49:50.219Z,1006.17
2018-11-06T10:51:00.369Z,1006.23
2018-11-06T10:52:09.823Z,1006.19
2018-11-06T10:53:19.600Z,1006.19
2018-11-06T10:54:29.584Z,1006.18
2018-11-06T10:55:39.559Z,1006.19
2018-11-06T10:56:49.554Z,1006.2
2018-11-06T10:57:59.573Z,1006.21
2018-11-06T10:59:09.959Z,1006.19
2018-11-06T11:00:19.517Z,1006.17
2018-11-06T11:01:29.495Z,1006.15
2018-11-06T11:02:39.196Z,1006.18
2018-11-06T11:03:48.882Z,1006.15
2018-11-06T11:04:58.685Z,1006.17
2018-11-06T11:06:08.391Z,1006.16
2018-11-06T11:07:17.596Z,1006.08
2018-11-06T11:08:27.304Z,1006.11
2018-11-06T11:09:37.273Z,1006.11
2018-11-06T11:10:47.245Z,1006.09
2018-11-06T11:11:57.231Z,1006.06
2018-11-06T11:13:06.932Z,1006.05
2018-11-06T11:14:16.542Z,1006.06
2018-11-06T11:15:26.496Z,1006.07
2018-11-06T11:16:36.460Z,1006.1
2018-11-06T11:17:46.153Z,1006.07
2018-11-06T11:18:56.098Z,1006.05
2018-11-06T11:20:05.653Z,1006.12
2018-11-06T11:21:15.662Z,1006.11
2018-11-06T11:22:25.502Z,1006.1
2018-11-06T11:23:34.972Z,1006.02
2018-11-06T11:24:44.689Z,1006.04
2018-11-06T11:25:54.391Z,1006.03
2018-11-06T11:27:04.350Z,1006.04
2018-11-06T11:28:14.312Z,1006.02
2018-11-06T11:29:24.016Z,1006.04
2018-11-06T11:30:33.979Z,1006.04
2018-11-06T11:31:43.688Z,1006
2018-11-06T11:32:53.409Z,1006.03
2018-11-06T11:34:03.134Z,1006.07
2018-11-06T11:35:12.861Z,1006.04
2018-11-06T11:36:22.625Z,1006.05
2018-11-06T11:37:32.676Z,1006.03
2018-11-06T11:38:42.725Z,1006.06
2018-11-06T11:39:52.686Z,1006.12
2018-11-06T11:41:02.402Z,1006.12
2018-11-06T11:42:12.095Z,1006.09
2018-11-06T11:43:21.302Z,1006.15
2018-11-06T11:44:31.031Z,1006.1
2018-11-06T11:45:40.753Z,1006.1
2018-11-06T11:46:51.042Z,1006.13
2018-11-06T11:48:00.518Z,1006.12
2018-11-06T11:49:10.494Z,1006.11
2018-11-06T11:50:20.444Z,1006.14
2018-11-06T11:51:30.174Z,1006.13
2018-11-06T11:52:39.131Z,1006.14
2018-11-06T11:53:48.618Z,1006.09
2018-11-06T11:54:58.582Z,1006.14
2018-11-06T11:56:08.317Z,1006.15
2018-11-06T11:57:18.297Z,1006.15
2018-11-06T11:58:28.259Z,1006.16
2018-11-06T11:59:38.270Z,1006.18
2018-11-06T12:00:48.235Z,1006.16
2018-11-06T12:01:57.718Z,1006.15
2018-11-06T12:03:07.667Z,1006.14
2018-11-06T12:04:17.664Z,1006.15
2018-11-06T12:05:27.826Z,1006.15
2018-11-06T12:06:37.789Z,1006.13
2018-11-06T12:07:47.485Z,1006.12
2018-11-06T12:08:57.185Z,1006.12
2018-11-06T12:10:06.888Z,1006.12
2018-11-06T12:11:16.658Z,1006.11
2018-11-06T12:12:26.663Z,1006.13
2018-11-06T12:13:36.122Z,1006.1
2018-11-06T12:14:45.319Z,1006.09
2018-11-06T12:15:55.296Z,1006.08
2018-11-06T12:17:05.279Z,1006.09
2018-11-06T12:18:15.092Z,1006.1
2018-11-06T12:19:25.562Z,1006.04
2018-11-06T12:20:35.542Z,1006.05
2018-11-06T12:21:45.247Z,1006.05
2018-11-06T12:22:54.940Z,1006.04
2018-11-06T12:24:04.933Z,1006.04
2018-11-06T12:25:15.537Z,1006.02
2018-11-06T12:26:27.752Z,1006
2018-11-06T12:27:37.222Z,1005.95
2018-11-06T12:28:47.193Z,1005.97
2018-11-06T12:29:56.900Z,1005.99
2018-11-06T12:31:06.856Z,1005.97
2018-11-06T12:32:16.564Z,1005.99
2018-11-06T12:33:26.451Z,1006.02
2018-11-06T12:34:36.470Z,1006.03
2018-11-06T12:35:45.685Z,1006.09
2018-11-06T12:36:55.490Z,1006.07
2018-11-06T12:38:05.687Z,1006.07
2018-11-06T12:39:14.873Z,1006.08
2018-11-06T12:40:24.593Z,1006.07
2018-11-06T12:41:34.573Z,1006.07
2018-11-06T12:42:44.039Z,1006.05
2018-11-06T12:43:53.620Z,1006.08
2018-11-06T12:45:03.085Z,1006.08
2018-11-06T12:46:12.802Z,1006.06
2018-11-06T12:47:22.247Z,1006.02
2018-11-06T12:48:31.973Z,1006.03
2018-11-06T12:49:41.982Z,1006
2018-11-06T12:50:51.422Z,1005.97
2018-11-06T12:52:00.888Z,1006.02
2018-11-06T12:53:10.592Z,1006.02
2018-11-06T12:54:20.557Z,1006.02
2018-11-06T12:55:30.522Z,1005.98
2018-11-06T12:56:39.948Z,1006.02
2018-11-06T12:57:49.396Z,1006
2018-11-06T12:58:59.364Z,1006.02
2018-11-06T13:00:08.810Z,1006.03
2018-11-06T13:01:18.793Z,1006.04
2018-11-06T13:02:28.248Z,1006.04
2018-11-06T13:03:37.697Z,1006.06
2018-11-06T13:04:47.669Z,1006.03
2018-11-06T13:05:57.666Z,1006.03
2018-11-06T13:07:07.375Z,1006.01
2018-11-06T13:08:17.086Z,1006.06
2018-11-06T13:09:27.075Z,1005.97
2018-11-06T13:10:37.027Z,1006.03
2018-11-06T13:11:46.741Z,1005.97
2018-11-06T13:12:56.463Z,1006.02
2018-11-06T13:14:06.438Z,1006.03
2018-11-06T13:15:17.490Z,1006.02
2018-11-06T13:16:27.794Z,1006.04
2018-11-06T13:17:37.477Z,1006.06
2018-11-06T13:18:47.194Z,1006.01
2018-11-06T13:19:56.980Z,1006.01
2018-11-06T13:21:06.425Z,1006.02
2018-11-06T13:22:16.119Z,1006
2018-11-06T13:23:25.820Z,1005.98
2018-11-06T13:24:35.786Z,1006.02
2018-11-06T13:25:45.609Z,1006.01
2018-11-06T13:26:55.627Z,1006
2018-11-06T13:28:05.323Z,1006.07
2018-11-06T13:29:14.512Z,1006.01
2018-11-06T13:30:24.210Z,1005.98
2018-11-06T13:31:34.400Z,1006
2018-11-06T13:32:43.832Z,1005.99
2018-11-06T13:33:53.288Z,1005.99
2018-11-06T13:35:03.256Z,1005.99
2018-11-06T13:36:12.450Z,1005.97
2018-11-06T13:37:22.143Z,1005.94
2018-11-06T13:38:31.852Z,1005.96
2018-11-06T13:39:41.560Z,1005.93
2018-11-06T13:40:51.007Z,1006
2018-11-06T13:42:00.633Z,1005.94
2018-11-06T13:43:11.145Z,1005.92
2018-11-06T13:44:22.075Z,1005.97
2018-11-06T13:45:33.289Z,1005.96
2018-11-06T13:46:44.796Z,1005.91
2018-11-06T13:47:54.230Z,1005.92
2018-11-06T13:49:04.200Z,1005.88
2018-11-06T13:50:13.923Z,1005.9
2018-11-06T13:51:23.642Z,1005.87
2018-11-06T13:52:33.322Z,1005.88
2018-11-06T13:53:42.782Z,1005.87
2018-11-06T13:54:52.546Z,1005.89
2018-11-06T13:56:02.240Z,1005.88
2018-11-06T13:57:11.955Z,1005.86
2018-11-06T13:58:21.660Z,1005.85
2018-11-06T13:59:31.650Z,1005.84
2018-11-06T14:00:41.654Z,1005.86
2018-11-06T14:01:51.104Z,1005.88
2018-11-06T14:03:01.091Z,1005.86
2018-11-06T14:04:11.115Z,1005.85
2018-11-06T14:05:20.748Z,1005.85
2018-11-06T14:06:30.718Z,1005.85
2018-11-06T14:07:40.697Z,1005.9